sensor_id;sensor_type;location;lat;lon;timestamp;P1;durP1;ratioP1;P2;durP2;ratioP2
10805;SDS011;5455;53.224;6.000;2022-12-18T00:02:13;32.57;;;19.20;;
10805;SDS011;5455;53.224;6.000;2022-12-18T00:04:40;32.90;;;20.17;;
10805;SDS011;5455;53.224;6.000;2022-12-18T00:07:07;34.67;;;20.43;;
10805;SDS011;5455;53.224;6.000;2022-12-18T00:09:34;34.00;;;20.10;;
10805;SDS011;5455;53.224;6.000;2022-12-18T00:12:05;33.30;;;19.83;;
10805;SDS011;5455;53.224;6.000;2022-12-18T00:14:41;33.20;;;18.50;;
10805;SDS011;5455;53.224;6.000;2022-12-18T00:17:11;30.83;;;19.33;;
10805;SDS011;5455;53.224;6.000;2022-12-18T00:19:38;37.50;;;20.07;;
10805;SDS011;5455;53.224;6.000;2022-12-18T00:22:05;34.13;;;19.47;;
10805;SDS011;5455;53.224;6.000;2022-12-18T00:24:32;38.07;;;23.17;;
10805;SDS011;5455;53.224;6.000;2022-12-18T00:27:00;36.13;;;22.37;;
10805;SDS011;5455;53.224;6.000;2022-12-18T00:29:27;35.33;;;21.97;;
10805;SDS011;5455;53.224;6.000;2022-12-18T00:31:54;39.47;;;22.40;;
10805;SDS011;5455;53.224;6.000;2022-12-18T00:34:21;40.43;;;22.23;;
10805;SDS011;5455;53.224;6.000;2022-12-18T00:36:48;33.77;;;21.20;;
10805;SDS011;5455;53.224;6.000;2022-12-18T00:39:15;35.73;;;22.57;;
10805;SDS011;5455;53.224;6.000;2022-12-18T00:41:43;36.73;;;22.07;;
10805;SDS011;5455;53.224;6.000;2022-12-18T00:44:30;40.10;;;22.37;;
10805;SDS011;5455;53.224;6.000;2022-12-18T00:46:57;35.57;;;20.23;;
10805;SDS011;5455;53.224;6.000;2022-12-18T00:49:24;33.20;;;19.63;;
10805;SDS011;5455;53.224;6.000;2022-12-18T00:51:51;33.87;;;19.27;;
10805;SDS011;5455;53.224;6.000;2022-12-18T00:54:22;33.57;;;18.77;;
10805;SDS011;5455;53.224;6.000;2022-12-18T00:56:49;33.43;;;19.43;;
10805;SDS011;5455;53.224;6.000;2022-12-18T00:59:16;36.63;;;19.83;;
10805;SDS011;5455;53.224;6.000;2022-12-18T01:01:44;35.07;;;20.03;;
10805;SDS011;5455;53.224;6.000;2022-12-18T01:04:14;35.63;;;19.97;;
10805;SDS011;5455;53.224;6.000;2022-12-18T01:06:44;35.03;;;21.40;;
10805;SDS011;5455;53.224;6.000;2022-12-18T01:09:12;40.57;;;20.17;;
10805;SDS011;5455;53.224;6.000;2022-12-18T01:11:39;34.23;;;19.27;;
10805;SDS011;5455;53.224;6.000;2022-12-18T01:14:06;35.60;;;19.70;;
10805;SDS011;5455;53.224;6.000;2022-12-18T01:16:33;35.47;;;19.70;;
10805;SDS011;5455;53.224;6.000;2022-12-18T01:19:03;38.07;;;20.67;;
10805;SDS011;5455;53.224;6.000;2022-12-18T01:21:30;35.77;;;20.40;;
10805;SDS011;5455;53.224;6.000;2022-12-18T01:24:02;36.40;;;18.47;;
10805;SDS011;5455;53.224;6.000;2022-12-18T01:26:29;35.67;;;19.37;;
10805;SDS011;5455;53.224;6.000;2022-12-18T01:28:56;34.20;;;18.90;;
10805;SDS011;5455;53.224;6.000;2022-12-18T01:31:28;35.73;;;19.77;;
10805;SDS011;5455;53.224;6.000;2022-12-18T01:33:57;34.83;;;19.23;;
10805;SDS011;5455;53.224;6.000;2022-12-18T01:36:28;33.57;;;18.77;;
10805;SDS011;5455;53.224;6.000;2022-12-18T01:39:00;32.07;;;18.93;;
10805;SDS011;5455;53.224;6.000;2022-12-18T01:41:29;35.63;;;18.90;;
10805;SDS011;5455;53.224;6.000;2022-12-18T01:49:59;34.23;;;18.57;;
10805;SDS011;5455;53.224;6.000;2022-12-18T01:52:31;37.63;;;19.57;;
10805;SDS011;5455;53.224;6.000;2022-12-18T01:54:59;35.30;;;19.47;;
10805;SDS011;5455;53.224;6.000;2022-12-18T01:57:28;37.03;;;19.73;;
10805;SDS011;5455;53.224;6.000;2022-12-18T01:59:57;36.53;;;19.13;;
10805;SDS011;5455;53.224;6.000;2022-12-18T02:02:38;33.80;;;17.67;;
10805;SDS011;5455;53.224;6.000;2022-12-18T02:05:07;35.33;;;19.33;;
10805;SDS011;5455;53.224;6.000;2022-12-18T02:07:42;36.10;;;19.20;;
10805;SDS011;5455;53.224;6.000;2022-12-18T02:10:27;36.33;;;19.20;;
10805;SDS011;5455;53.224;6.000;2022-12-18T02:13:11;32.60;;;17.93;;
10805;SDS011;5455;53.224;6.000;2022-12-18T02:15:57;37.13;;;19.60;;
10805;SDS011;5455;53.224;6.000;2022-12-18T02:18:32;35.53;;;19.37;;
10805;SDS011;5455;53.224;6.000;2022-12-18T02:21:08;36.13;;;18.90;;
10805;SDS011;5455;53.224;6.000;2022-12-18T02:32:06;34.60;;;19.03;;
10805;SDS011;5455;53.224;6.000;2022-12-18T02:34:39;35.17;;;19.07;;
10805;SDS011;5455;53.224;6.000;2022-12-18T02:37:13;34.80;;;18.53;;
10805;SDS011;5455;53.224;6.000;2022-12-18T02:39:43;38.97;;;20.33;;
10805;SDS011;5455;53.224;6.000;2022-12-18T02:42:14;36.00;;;18.50;;
10805;SDS011;5455;53.224;6.000;2022-12-18T02:44:44;30.93;;;17.07;;
10805;SDS011;5455;53.224;6.000;2022-12-18T02:47:16;33.03;;;18.17;;
10805;SDS011;5455;53.224;6.000;2022-12-18T02:49:53;35.47;;;18.90;;
10805;SDS011;5455;53.224;6.000;2022-12-18T03:03:51;33.33;;;17.63;;
10805;SDS011;5455;53.224;6.000;2022-12-18T03:06:44;31.57;;;17.63;;
10805;SDS011;5455;53.224;6.000;2022-12-18T03:09:31;34.07;;;18.77;;
10805;SDS011;5455;53.224;6.000;2022-12-18T03:12:04;34.13;;;18.53;;
10805;SDS011;5455;53.224;6.000;2022-12-18T03:17:46;32.70;;;17.57;;
10805;SDS011;5455;53.224;6.000;2022-12-18T03:20:20;32.67;;;17.50;;
10805;SDS011;5455;53.224;6.000;2022-12-18T03:22:50;35.73;;;18.20;;
10805;SDS011;5455;53.224;6.000;2022-12-18T03:25:34;34.80;;;18.33;;
10805;SDS011;5455;53.224;6.000;2022-12-18T03:28:05;33.60;;;17.63;;
10805;SDS011;5455;53.224;6.000;2022-12-18T03:30:36;33.20;;;18.07;;
10805;SDS011;5455;53.224;6.000;2022-12-18T03:33:24;32.30;;;17.73;;
10805;SDS011;5455;53.224;6.000;2022-12-18T03:35:56;35.43;;;18.13;;
10805;SDS011;5455;53.224;6.000;2022-12-18T03:38:23;35.30;;;18.50;;
10805;SDS011;5455;53.224;6.000;2022-12-18T03:49:23;31.43;;;17.77;;
10805;SDS011;5455;53.224;6.000;2022-12-18T03:52:09;32.73;;;17.70;;
10805;SDS011;5455;53.224;6.000;2022-12-18T03:54:41;34.13;;;18.03;;
10805;SDS011;5455;53.224;6.000;2022-12-18T03:57:19;32.43;;;18.10;;
10805;SDS011;5455;53.224;6.000;2022-12-18T03:59:53;34.83;;;18.87;;
10805;SDS011;5455;53.224;6.000;2022-12-18T04:02:28;32.47;;;17.67;;
10805;SDS011;5455;53.224;6.000;2022-12-18T04:05:00;36.00;;;18.47;;
10805;SDS011;5455;53.224;6.000;2022-12-18T04:07:30;35.57;;;19.50;;
10805;SDS011;5455;53.224;6.000;2022-12-18T04:09:58;35.63;;;18.87;;
10805;SDS011;5455;53.224;6.000;2022-12-18T04:12:30;35.67;;;19.03;;
10805;SDS011;5455;53.224;6.000;2022-12-18T04:14:57;35.50;;;18.53;;
10805;SDS011;5455;53.224;6.000;2022-12-18T04:17:24;36.43;;;18.43;;
10805;SDS011;5455;53.224;6.000;2022-12-18T04:19:51;33.57;;;18.47;;
10805;SDS011;5455;53.224;6.000;2022-12-18T04:22:19;35.37;;;19.80;;
10805;SDS011;5455;53.224;6.000;2022-12-18T04:24:49;34.60;;;18.47;;
10805;SDS011;5455;53.224;6.000;2022-12-18T04:27:26;32.30;;;17.20;;
10805;SDS011;5455;53.224;6.000;2022-12-18T04:29:53;33.57;;;18.13;;
10805;SDS011;5455;53.224;6.000;2022-12-18T04:32:20;38.17;;;18.33;;
10805;SDS011;5455;53.224;6.000;2022-12-18T04:34:47;33.27;;;17.77;;
10805;SDS011;5455;53.224;6.000;2022-12-18T04:37:14;40.27;;;18.33;;
10805;SDS011;5455;53.224;6.000;2022-12-18T04:39:43;36.60;;;19.37;;
10805;SDS011;5455;53.224;6.000;2022-12-18T04:42:18;34.63;;;19.43;;
10805;SDS011;5455;53.224;6.000;2022-12-18T04:44:45;35.10;;;19.13;;
10805;SDS011;5455;53.224;6.000;2022-12-18T04:47:12;35.57;;;19.03;;
10805;SDS011;5455;53.224;6.000;2022-12-18T04:49:39;34.97;;;18.60;;
10805;SDS011;5455;53.224;6.000;2022-12-18T04:52:06;37.07;;;18.53;;
10805;SDS011;5455;53.224;6.000;2022-12-18T04:54:34;30.50;;;17.77;;
10805;SDS011;5455;53.224;6.000;2022-12-18T04:57:01;35.60;;;18.70;;
10805;SDS011;5455;53.224;6.000;2022-12-18T04:59:28;34.53;;;18.40;;
10805;SDS011;5455;53.224;6.000;2022-12-18T05:01:55;36.87;;;18.57;;
10805;SDS011;5455;53.224;6.000;2022-12-18T05:04:21;33.37;;;18.47;;
10805;SDS011;5455;53.224;6.000;2022-12-18T05:06:48;33.10;;;17.50;;
10805;SDS011;5455;53.224;6.000;2022-12-18T05:09:15;33.50;;;17.17;;
10805;SDS011;5455;53.224;6.000;2022-12-18T05:11:42;36.43;;;18.50;;
10805;SDS011;5455;53.224;6.000;2022-12-18T05:14:11;29.63;;;16.50;;
10805;SDS011;5455;53.224;6.000;2022-12-18T05:16:38;32.43;;;17.43;;
10805;SDS011;5455;53.224;6.000;2022-12-18T05:19:05;32.67;;;17.57;;
10805;SDS011;5455;53.224;6.000;2022-12-18T05:21:32;29.53;;;16.03;;
10805;SDS011;5455;53.224;6.000;2022-12-18T05:23:59;29.63;;;16.67;;
10805;SDS011;5455;53.224;6.000;2022-12-18T05:26:25;32.77;;;17.53;;
10805;SDS011;5455;53.224;6.000;2022-12-18T05:28:52;30.67;;;16.70;;
10805;SDS011;5455;53.224;6.000;2022-12-18T05:31:19;27.90;;;15.37;;
10805;SDS011;5455;53.224;6.000;2022-12-18T05:33:46;27.87;;;15.67;;
10805;SDS011;5455;53.224;6.000;2022-12-18T05:36:13;27.93;;;16.53;;
10805;SDS011;5455;53.224;6.000;2022-12-18T05:38:40;27.97;;;16.27;;
10805;SDS011;5455;53.224;6.000;2022-12-18T05:41:07;28.03;;;15.73;;
10805;SDS011;5455;53.224;6.000;2022-12-18T05:43:35;28.33;;;15.30;;
10805;SDS011;5455;53.224;6.000;2022-12-18T05:46:08;26.87;;;14.63;;
10805;SDS011;5455;53.224;6.000;2022-12-18T05:48:39;28.27;;;16.20;;
10805;SDS011;5455;53.224;6.000;2022-12-18T05:51:12;26.80;;;14.63;;
10805;SDS011;5455;53.224;6.000;2022-12-18T05:53:41;25.90;;;15.03;;
10805;SDS011;5455;53.224;6.000;2022-12-18T05:56:13;27.27;;;14.93;;
10805;SDS011;5455;53.224;6.000;2022-12-18T05:58:42;24.87;;;14.43;;
10805;SDS011;5455;53.224;6.000;2022-12-18T06:01:11;26.17;;;14.20;;
10805;SDS011;5455;53.224;6.000;2022-12-18T06:03:40;25.57;;;14.33;;
10805;SDS011;5455;53.224;6.000;2022-12-18T06:08:47;23.97;;;14.23;;
10805;SDS011;5455;53.224;6.000;2022-12-18T06:11:25;27.43;;;14.63;;
10805;SDS011;5455;53.224;6.000;2022-12-18T06:13:56;23.73;;;14.40;;
10805;SDS011;5455;53.224;6.000;2022-12-18T06:16:25;28.20;;;14.43;;
10805;SDS011;5455;53.224;6.000;2022-12-18T06:18:56;23.00;;;13.67;;
10805;SDS011;5455;53.224;6.000;2022-12-18T06:21:24;25.60;;;14.97;;
10805;SDS011;5455;53.224;6.000;2022-12-18T06:23:51;23.53;;;13.73;;
10805;SDS011;5455;53.224;6.000;2022-12-18T06:26:18;22.30;;;12.60;;
10805;SDS011;5455;53.224;6.000;2022-12-18T06:28:53;25.53;;;14.23;;
10805;SDS011;5455;53.224;6.000;2022-12-18T06:31:20;24.53;;;13.57;;
10805;SDS011;5455;53.224;6.000;2022-12-18T06:33:47;23.60;;;13.80;;
10805;SDS011;5455;53.224;6.000;2022-12-18T06:36:14;25.93;;;13.60;;
10805;SDS011;5455;53.224;6.000;2022-12-18T06:38:41;22.97;;;13.67;;
10805;SDS011;5455;53.224;6.000;2022-12-18T06:41:13;23.23;;;14.23;;
10805;SDS011;5455;53.224;6.000;2022-12-18T06:43:42;22.20;;;13.20;;
10805;SDS011;5455;53.224;6.000;2022-12-18T06:46:10;24.23;;;13.00;;
10805;SDS011;5455;53.224;6.000;2022-12-18T06:48:37;23.97;;;14.40;;
10805;SDS011;5455;53.224;6.000;2022-12-18T06:51:04;23.67;;;13.40;;
10805;SDS011;5455;53.224;6.000;2022-12-18T06:53:31;25.07;;;13.67;;
10805;SDS011;5455;53.224;6.000;2022-12-18T06:56:03;22.20;;;12.20;;
10805;SDS011;5455;53.224;6.000;2022-12-18T06:58:35;24.07;;;13.33;;
10805;SDS011;5455;53.224;6.000;2022-12-18T07:01:03;25.63;;;13.23;;
10805;SDS011;5455;53.224;6.000;2022-12-18T07:03:32;21.93;;;11.80;;
10805;SDS011;5455;53.224;6.000;2022-12-18T07:05:59;23.27;;;12.60;;
10805;SDS011;5455;53.224;6.000;2022-12-18T07:08:26;24.87;;;12.53;;
10805;SDS011;5455;53.224;6.000;2022-12-18T07:10:54;23.10;;;12.20;;
10805;SDS011;5455;53.224;6.000;2022-12-18T07:13:22;18.70;;;11.93;;
10805;SDS011;5455;53.224;6.000;2022-12-18T07:15:49;20.27;;;12.27;;
10805;SDS011;5455;53.224;6.000;2022-12-18T07:18:16;19.97;;;11.80;;
10805;SDS011;5455;53.224;6.000;2022-12-18T07:20:43;20.83;;;11.63;;
10805;SDS011;5455;53.224;6.000;2022-12-18T07:23:11;19.10;;;11.67;;
10805;SDS011;5455;53.224;6.000;2022-12-18T07:25:38;18.97;;;10.97;;
10805;SDS011;5455;53.224;6.000;2022-12-18T07:28:06;18.93;;;11.43;;
10805;SDS011;5455;53.224;6.000;2022-12-18T07:30:39;21.20;;;11.60;;
10805;SDS011;5455;53.224;6.000;2022-12-18T07:33:07;18.00;;;10.37;;
10805;SDS011;5455;53.224;6.000;2022-12-18T07:35:34;19.57;;;11.30;;
10805;SDS011;5455;53.224;6.000;2022-12-18T07:38:03;19.30;;;11.07;;
10805;SDS011;5455;53.224;6.000;2022-12-18T07:40:30;21.43;;;12.03;;
10805;SDS011;5455;53.224;6.000;2022-12-18T07:42:57;17.80;;;10.97;;
10805;SDS011;5455;53.224;6.000;2022-12-18T07:45:24;23.13;;;11.07;;
10805;SDS011;5455;53.224;6.000;2022-12-18T07:47:51;20.10;;;10.97;;
10805;SDS011;5455;53.224;6.000;2022-12-18T07:50:18;18.70;;;11.00;;
10805;SDS011;5455;53.224;6.000;2022-12-18T07:52:45;20.13;;;11.77;;
10805;SDS011;5455;53.224;6.000;2022-12-18T07:55:13;21.27;;;11.17;;
10805;SDS011;5455;53.224;6.000;2022-12-18T07:57:40;18.77;;;10.53;;
10805;SDS011;5455;53.224;6.000;2022-12-18T08:00:16;20.57;;;12.17;;
10805;SDS011;5455;53.224;6.000;2022-12-18T08:02:43;18.13;;;11.63;;
10805;SDS011;5455;53.224;6.000;2022-12-18T08:05:11;17.13;;;10.40;;
10805;SDS011;5455;53.224;6.000;2022-12-18T08:07:37;21.03;;;11.30;;
10805;SDS011;5455;53.224;6.000;2022-12-18T08:10:05;18.57;;;10.83;;
10805;SDS011;5455;53.224;6.000;2022-12-18T08:12:32;21.53;;;10.33;;
10805;SDS011;5455;53.224;6.000;2022-12-18T08:15:00;17.57;;;10.20;;
10805;SDS011;5455;53.224;6.000;2022-12-18T08:17:27;19.93;;;9.97;;
10805;SDS011;5455;53.224;6.000;2022-12-18T08:19:54;21.47;;;10.63;;
10805;SDS011;5455;53.224;6.000;2022-12-18T08:22:21;19.37;;;10.67;;
10805;SDS011;5455;53.224;6.000;2022-12-18T08:24:48;17.23;;;10.30;;
10805;SDS011;5455;53.224;6.000;2022-12-18T08:27:15;17.17;;;9.93;;
10805;SDS011;5455;53.224;6.000;2022-12-18T08:29:57;16.17;;;9.57;;
10805;SDS011;5455;53.224;6.000;2022-12-18T08:32:26;18.27;;;8.80;;
10805;SDS011;5455;53.224;6.000;2022-12-18T08:34:53;18.33;;;9.67;;
10805;SDS011;5455;53.224;6.000;2022-12-18T08:37:20;18.07;;;10.10;;
10805;SDS011;5455;53.224;6.000;2022-12-18T08:39:48;19.70;;;10.17;;
10805;SDS011;5455;53.224;6.000;2022-12-18T08:42:15;19.67;;;9.90;;
10805;SDS011;5455;53.224;6.000;2022-12-18T08:45:01;15.27;;;9.27;;
10805;SDS011;5455;53.224;6.000;2022-12-18T08:47:28;18.23;;;10.27;;
10805;SDS011;5455;53.224;6.000;2022-12-18T08:49:55;16.00;;;9.83;;
10805;SDS011;5455;53.224;6.000;2022-12-18T08:52:22;17.43;;;10.23;;
10805;SDS011;5455;53.224;6.000;2022-12-18T08:54:49;17.97;;;9.80;;
10805;SDS011;5455;53.224;6.000;2022-12-18T08:57:16;17.00;;;8.90;;
10805;SDS011;5455;53.224;6.000;2022-12-18T08:59:43;19.00;;;10.50;;
10805;SDS011;5455;53.224;6.000;2022-12-18T09:02:10;18.03;;;10.53;;
10805;SDS011;5455;53.224;6.000;2022-12-18T09:04:38;18.27;;;10.60;;
10805;SDS011;5455;53.224;6.000;2022-12-18T09:07:06;16.07;;;10.63;;
10805;SDS011;5455;53.224;6.000;2022-12-18T09:09:33;14.80;;;8.70;;
10805;SDS011;5455;53.224;6.000;2022-12-18T09:12:00;17.87;;;8.93;;
10805;SDS011;5455;53.224;6.000;2022-12-18T09:14:27;17.00;;;9.37;;
10805;SDS011;5455;53.224;6.000;2022-12-18T09:16:53;16.77;;;9.70;;
10805;SDS011;5455;53.224;6.000;2022-12-18T09:19:21;16.00;;;9.37;;
10805;SDS011;5455;53.224;6.000;2022-12-18T09:21:48;13.87;;;8.47;;
10805;SDS011;5455;53.224;6.000;2022-12-18T09:24:15;18.47;;;9.33;;
10805;SDS011;5455;53.224;6.000;2022-12-18T09:26:43;13.73;;;8.63;;
10805;SDS011;5455;53.224;6.000;2022-12-18T09:29:13;14.23;;;8.33;;
10805;SDS011;5455;53.224;6.000;2022-12-18T09:31:44;13.27;;;8.60;;
10805;SDS011;5455;53.224;6.000;2022-12-18T09:34:12;13.83;;;9.20;;
10805;SDS011;5455;53.224;6.000;2022-12-18T09:36:38;13.07;;;7.90;;
10805;SDS011;5455;53.224;6.000;2022-12-18T09:39:05;14.33;;;8.17;;
10805;SDS011;5455;53.224;6.000;2022-12-18T09:47:13;12.37;;;7.80;;
10805;SDS011;5455;53.224;6.000;2022-12-18T09:49:48;13.00;;;8.10;;
10805;SDS011;5455;53.224;6.000;2022-12-18T09:52:30;11.00;;;7.43;;
10805;SDS011;5455;53.224;6.000;2022-12-18T09:57:39;10.23;;;7.40;;
10805;SDS011;5455;53.224;6.000;2022-12-18T10:00:16;13.17;;;7.70;;
10805;SDS011;5455;53.224;6.000;2022-12-18T10:02:46;12.17;;;7.90;;
10805;SDS011;5455;53.224;6.000;2022-12-18T10:05:20;11.07;;;7.07;;
10805;SDS011;5455;53.224;6.000;2022-12-18T10:16:12;11.93;;;7.40;;
10805;SDS011;5455;53.224;6.000;2022-12-18T10:21:15;9.57;;;6.53;;
10805;SDS011;5455;53.224;6.000;2022-12-18T10:23:54;10.73;;;6.67;;
10805;SDS011;5455;53.224;6.000;2022-12-18T10:26:23;10.57;;;6.93;;
10805;SDS011;5455;53.224;6.000;2022-12-18T10:28:51;9.50;;;6.60;;
10805;SDS011;5455;53.224;6.000;2022-12-18T10:31:21;10.97;;;7.03;;
10805;SDS011;5455;53.224;6.000;2022-12-18T10:33:50;10.10;;;6.63;;
10805;SDS011;5455;53.224;6.000;2022-12-18T10:36:22;9.00;;;6.67;;
10805;SDS011;5455;53.224;6.000;2022-12-18T10:38:51;8.17;;;6.20;;
10805;SDS011;5455;53.224;6.000;2022-12-18T10:43:52;8.93;;;5.87;;
10805;SDS011;5455;53.224;6.000;2022-12-18T10:46:38;9.27;;;6.30;;
10805;SDS011;5455;53.224;6.000;2022-12-18T10:49:07;8.73;;;6.23;;
10805;SDS011;5455;53.224;6.000;2022-12-18T10:51:46;8.33;;;5.70;;
10805;SDS011;5455;53.224;6.000;2022-12-18T10:54:15;8.57;;;6.27;;
10805;SDS011;5455;53.224;6.000;2022-12-18T10:56:44;8.53;;;6.53;;
10805;SDS011;5455;53.224;6.000;2022-12-18T10:59:13;9.00;;;5.83;;
10805;SDS011;5455;53.224;6.000;2022-12-18T11:01:59;9.30;;;6.27;;
10805;SDS011;5455;53.224;6.000;2022-12-18T11:04:28;9.43;;;6.57;;
10805;SDS011;5455;53.224;6.000;2022-12-18T11:07:04;9.57;;;6.67;;
10805;SDS011;5455;53.224;6.000;2022-12-18T11:09:34;8.47;;;5.93;;
10805;SDS011;5455;53.224;6.000;2022-12-18T11:12:16;8.47;;;6.43;;
10805;SDS011;5455;53.224;6.000;2022-12-18T11:14:46;8.97;;;6.30;;
10805;SDS011;5455;53.224;6.000;2022-12-18T11:19:53;9.37;;;5.93;;
10805;SDS011;5455;53.224;6.000;2022-12-18T11:22:29;10.80;;;6.47;;
10805;SDS011;5455;53.224;6.000;2022-12-18T11:25:02;9.20;;;6.50;;
10805;SDS011;5455;53.224;6.000;2022-12-18T11:36:55;10.10;;;7.03;;
10805;SDS011;5455;53.224;6.000;2022-12-18T11:45:23;8.03;;;6.00;;
10805;SDS011;5455;53.224;6.000;2022-12-18T11:50:49;7.37;;;5.33;;
10805;SDS011;5455;53.224;6.000;2022-12-18T11:53:21;6.97;;;5.50;;
10805;SDS011;5455;53.224;6.000;2022-12-18T11:58:42;7.90;;;5.20;;
10805;SDS011;5455;53.224;6.000;2022-12-18T12:17:03;6.63;;;4.87;;
10805;SDS011;5455;53.224;6.000;2022-12-18T12:20:19;7.67;;;4.90;;
10805;SDS011;5455;53.224;6.000;2022-12-18T12:40:04;5.00;;;4.07;;
10805;SDS011;5455;53.224;6.000;2022-12-18T12:46:05;5.43;;;3.93;;
10805;SDS011;5455;53.224;6.000;2022-12-18T12:51:20;5.07;;;3.67;;
10805;SDS011;5455;53.224;6.000;2022-12-18T12:53:48;5.43;;;3.63;;
10805;SDS011;5455;53.224;6.000;2022-12-18T12:56:20;6.20;;;4.23;;
10805;SDS011;5455;53.224;6.000;2022-12-18T13:01:49;8.73;;;4.70;;
10805;SDS011;5455;53.224;6.000;2022-12-18T13:04:37;6.57;;;4.50;;
10805;SDS011;5455;53.224;6.000;2022-12-18T13:07:14;5.67;;;4.17;;
10805;SDS011;5455;53.224;6.000;2022-12-18T13:15:38;3.80;;;3.07;;
10805;SDS011;5455;53.224;6.000;2022-12-18T13:20:36;3.80;;;3.07;;
10805;SDS011;5455;53.224;6.000;2022-12-18T13:36:55;4.53;;;3.37;;
10805;SDS011;5455;53.224;6.000;2022-12-18T13:39:43;4.73;;;3.00;;
10805;SDS011;5455;53.224;6.000;2022-12-18T13:44:58;3.50;;;2.50;;
10805;SDS011;5455;53.224;6.000;2022-12-18T13:47:32;4.30;;;2.87;;
10805;SDS011;5455;53.224;6.000;2022-12-18T13:50:03;3.13;;;2.40;;
10805;SDS011;5455;53.224;6.000;2022-12-18T13:52:37;3.37;;;2.80;;
10805;SDS011;5455;53.224;6.000;2022-12-18T13:55:07;3.97;;;2.80;;
10805;SDS011;5455;53.224;6.000;2022-12-18T13:57:43;3.97;;;2.67;;
10805;SDS011;5455;53.224;6.000;2022-12-18T14:02:49;4.60;;;2.83;;
10805;SDS011;5455;53.224;6.000;2022-12-18T14:05:35;3.97;;;2.70;;
10805;SDS011;5455;53.224;6.000;2022-12-18T14:08:10;4.00;;;2.77;;
10805;SDS011;5455;53.224;6.000;2022-12-18T14:10:40;5.37;;;3.00;;
10805;SDS011;5455;53.224;6.000;2022-12-18T14:13:28;4.60;;;2.90;;
10805;SDS011;5455;53.224;6.000;2022-12-18T14:15:58;4.40;;;3.10;;
10805;SDS011;5455;53.224;6.000;2022-12-18T14:18:41;3.20;;;2.77;;
10805;SDS011;5455;53.224;6.000;2022-12-18T14:21:17;3.77;;;3.27;;
10805;SDS011;5455;53.224;6.000;2022-12-18T14:24:02;4.67;;;3.33;;
10805;SDS011;5455;53.224;6.000;2022-12-18T14:26:31;5.17;;;3.10;;
10805;SDS011;5455;53.224;6.000;2022-12-18T14:29:00;4.37;;;2.87;;
10805;SDS011;5455;53.224;6.000;2022-12-18T14:31:45;6.20;;;3.40;;
10805;SDS011;5455;53.224;6.000;2022-12-18T14:34:18;6.50;;;3.47;;
10805;SDS011;5455;53.224;6.000;2022-12-18T14:36:52;4.57;;;2.90;;
10805;SDS011;5455;53.224;6.000;2022-12-18T14:39:21;4.30;;;2.97;;
10805;SDS011;5455;53.224;6.000;2022-12-18T14:41:51;3.87;;;2.97;;
10805;SDS011;5455;53.224;6.000;2022-12-18T14:44:19;5.93;;;3.20;;
10805;SDS011;5455;53.224;6.000;2022-12-18T14:46:48;4.27;;;3.30;;
10805;SDS011;5455;53.224;6.000;2022-12-18T14:51:59;3.90;;;3.13;;
10805;SDS011;5455;53.224;6.000;2022-12-18T14:54:33;3.50;;;2.93;;
10805;SDS011;5455;53.224;6.000;2022-12-18T14:57:03;7.17;;;3.13;;
10805;SDS011;5455;53.224;6.000;2022-12-18T14:59:32;4.13;;;3.23;;
10805;SDS011;5455;53.224;6.000;2022-12-18T15:05:04;5.00;;;3.23;;
10805;SDS011;5455;53.224;6.000;2022-12-18T15:07:42;5.33;;;3.73;;
10805;SDS011;5455;53.224;6.000;2022-12-18T15:10:13;5.20;;;3.53;;
10805;SDS011;5455;53.224;6.000;2022-12-18T15:20:42;5.57;;;3.30;;
10805;SDS011;5455;53.224;6.000;2022-12-18T15:26:04;4.57;;;3.10;;
10805;SDS011;5455;53.224;6.000;2022-12-18T15:28:39;6.43;;;3.50;;
10805;SDS011;5455;53.224;6.000;2022-12-18T15:36:26;5.70;;;2.97;;
10805;SDS011;5455;53.224;6.000;2022-12-18T15:38:53;4.90;;;3.60;;
10805;SDS011;5455;53.224;6.000;2022-12-18T15:41:32;4.73;;;3.40;;
10805;SDS011;5455;53.224;6.000;2022-12-18T15:44:21;5.97;;;3.40;;
10805;SDS011;5455;53.224;6.000;2022-12-18T15:46:49;5.03;;;3.30;;
10805;SDS011;5455;53.224;6.000;2022-12-18T15:49:16;4.70;;;3.60;;
10805;SDS011;5455;53.224;6.000;2022-12-18T15:51:43;5.00;;;4.00;;
10805;SDS011;5455;53.224;6.000;2022-12-18T15:54:12;4.53;;;3.23;;
10805;SDS011;5455;53.224;6.000;2022-12-18T15:56:42;5.63;;;3.37;;
10805;SDS011;5455;53.224;6.000;2022-12-18T15:59:28;5.37;;;3.53;;
10805;SDS011;5455;53.224;6.000;2022-12-18T16:01:56;5.03;;;3.73;;
10805;SDS011;5455;53.224;6.000;2022-12-18T16:04:23;5.97;;;3.90;;
10805;SDS011;5455;53.224;6.000;2022-12-18T16:06:51;4.77;;;3.57;;
10805;SDS011;5455;53.224;6.000;2022-12-18T16:09:40;7.37;;;3.40;;
10805;SDS011;5455;53.224;6.000;2022-12-18T16:12:18;5.60;;;4.27;;
10805;SDS011;5455;53.224;6.000;2022-12-18T16:14:48;3.97;;;3.37;;
10805;SDS011;5455;53.224;6.000;2022-12-18T16:17:15;5.40;;;3.83;;
10805;SDS011;5455;53.224;6.000;2022-12-18T16:19:42;5.47;;;3.70;;
10805;SDS011;5455;53.224;6.000;2022-12-18T16:22:15;5.90;;;4.33;;
10805;SDS011;5455;53.224;6.000;2022-12-18T16:24:46;5.63;;;3.70;;
10805;SDS011;5455;53.224;6.000;2022-12-18T16:27:13;4.73;;;3.63;;
10805;SDS011;5455;53.224;6.000;2022-12-18T16:29:41;5.47;;;3.70;;
10805;SDS011;5455;53.224;6.000;2022-12-18T16:32:08;6.17;;;4.03;;
10805;SDS011;5455;53.224;6.000;2022-12-18T16:34:40;5.87;;;3.97;;
10805;SDS011;5455;53.224;6.000;2022-12-18T16:37:08;5.57;;;3.83;;
10805;SDS011;5455;53.224;6.000;2022-12-18T16:39:37;5.53;;;4.20;;
10805;SDS011;5455;53.224;6.000;2022-12-18T16:42:08;6.90;;;4.40;;
10805;SDS011;5455;53.224;6.000;2022-12-18T16:44:43;5.30;;;4.23;;
10805;SDS011;5455;53.224;6.000;2022-12-18T16:47:12;6.10;;;4.30;;
10805;SDS011;5455;53.224;6.000;2022-12-18T16:49:41;6.80;;;4.43;;
10805;SDS011;5455;53.224;6.000;2022-12-18T16:52:08;5.83;;;4.40;;
10805;SDS011;5455;53.224;6.000;2022-12-18T16:54:35;7.37;;;4.17;;
10805;SDS011;5455;53.224;6.000;2022-12-18T16:57:03;6.70;;;4.60;;
10805;SDS011;5455;53.224;6.000;2022-12-18T16:59:30;8.33;;;4.23;;
10805;SDS011;5455;53.224;6.000;2022-12-18T17:01:58;5.67;;;4.27;;
10805;SDS011;5455;53.224;6.000;2022-12-18T17:04:25;6.73;;;4.40;;
10805;SDS011;5455;53.224;6.000;2022-12-18T17:06:52;7.50;;;4.50;;
10805;SDS011;5455;53.224;6.000;2022-12-18T17:09:20;6.83;;;5.00;;
10805;SDS011;5455;53.224;6.000;2022-12-18T17:11:53;7.07;;;5.00;;
10805;SDS011;5455;53.224;6.000;2022-12-18T17:14:22;8.13;;;4.70;;
10805;SDS011;5455;53.224;6.000;2022-12-18T17:16:50;8.07;;;5.00;;
10805;SDS011;5455;53.224;6.000;2022-12-18T17:19:38;7.13;;;4.37;;
10805;SDS011;5455;53.224;6.000;2022-12-18T17:22:06;9.60;;;6.07;;
10805;SDS011;5455;53.224;6.000;2022-12-18T17:24:33;6.60;;;5.00;;
10805;SDS011;5455;53.224;6.000;2022-12-18T17:27:01;6.17;;;4.60;;
10805;SDS011;5455;53.224;6.000;2022-12-18T17:29:29;6.17;;;4.60;;
10805;SDS011;5455;53.224;6.000;2022-12-18T17:31:56;8.27;;;5.13;;
10805;SDS011;5455;53.224;6.000;2022-12-18T17:34:26;6.63;;;5.13;;
10805;SDS011;5455;53.224;6.000;2022-12-18T17:36:54;6.53;;;4.27;;
10805;SDS011;5455;53.224;6.000;2022-12-18T17:39:21;5.40;;;4.47;;
10805;SDS011;5455;53.224;6.000;2022-12-18T17:41:48;7.60;;;5.20;;
10805;SDS011;5455;53.224;6.000;2022-12-18T17:44:15;6.37;;;4.87;;
10805;SDS011;5455;53.224;6.000;2022-12-18T17:46:43;6.67;;;4.93;;
10805;SDS011;5455;53.224;6.000;2022-12-18T17:49:11;6.70;;;5.13;;
10805;SDS011;5455;53.224;6.000;2022-12-18T17:51:40;6.57;;;4.73;;
10805;SDS011;5455;53.224;6.000;2022-12-18T17:54:08;6.40;;;5.03;;
10805;SDS011;5455;53.224;6.000;2022-12-18T17:56:37;6.07;;;4.93;;
10805;SDS011;5455;53.224;6.000;2022-12-18T17:59:05;6.70;;;4.60;;
10805;SDS011;5455;53.224;6.000;2022-12-18T18:01:32;6.03;;;4.33;;
10805;SDS011;5455;53.224;6.000;2022-12-18T18:04:06;6.07;;;4.73;;